Storholm — LJBK — position and weather

sailwx.info

Track history (hours):
 
Tides and Currents Weather Stations Pressure Air Temp Water Temp Dewpoint Dewpoint Depression Visibility Wind Speed Wind Dir Waves Ship Positions

Storholm

Last reported at 2018-Jun-13 15:30 UTC. Time now 2018-Jul-23 17:31 UTC.
Position N 69°21' E 016°20'.
Warning: this ship's position is 40 days out of date.

Length 22 m; draft 3.8 m.

Type: Fishing. MMSI: 257405500.

Date/timePositionNaut miles runAvg speedWind from/ knotsBaromVisibWave heightAir tempDewpointWater temp
2018-Jun-13 15:30N 69°21' E 016°20'4 8.7
2018-Jun-13 14:59N 69°26' E 016°25'4 8.6
2018-Jun-13 14:29N 69°30' E 016°29'  
2018-Jun-04 08:04N 68°48' E 016°49'0 7.7
2018-Jun-04 08:00N 68°48' E 016°50'8 7.7
2018-Jun-04 06:55N 68°55' E 017°02'4 7.7
2018-Jun-04 06:22N 68°58' E 017°10'3 7.5
2018-Jun-04 06:00N 69°00' E 017°16'6 7.9
2018-Jun-04 05:13N 69°05' E 017°25'2 7.7
2018-Jun-04 05:00N 69°06' E 017°29'4 7.7
2018-Jun-04 04:30N 69°08' E 017°39'4 7.7
2018-Jun-04 04:00N 69°09' E 017°49'  
Track history (hours):
 
Tides and Currents Weather Stations Pressure Air Temp Water Temp Dewpoint Dewpoint Depression Visibility Wind Speed Wind Dir Waves Ship Positions

Storholm

Last reported at 2018-Jun-13 15:30 UTC. Time now 2018-Jul-23 17:31 UTC.
Position N 69°21' E 016°20'.
Warning: this ship's position is 40 days out of date.

Length 22 m; draft 3.8 m.

Type: Fishing. MMSI: 257405500.

Date/timePositionNaut miles runAvg speedWind from/ knotsBaromVisibWave heightAir tempDewpointWater temp
2018-Jun-13 15:30N 69°21' E 016°20'4 8.7
2018-Jun-13 14:59N 69°26' E 016°25'4 8.6
2018-Jun-13 14:29N 69°30' E 016°29'  
2018-Jun-04 08:04N 68°48' E 016°49'0 7.7
2018-Jun-04 08:00N 68°48' E 016°50'8 7.7
2018-Jun-04 06:55N 68°55' E 017°02'4 7.7
2018-Jun-04 06:22N 68°58' E 017°10'3 7.5
2018-Jun-04 06:00N 69°00' E 017°16'6 7.9
2018-Jun-04 05:13N 69°05' E 017°25'2 7.7
2018-Jun-04 05:00N 69°06' E 017°29'4 7.7
2018-Jun-04 04:30N 69°08' E 017°39'4 7.7
2018-Jun-04 04:00N 69°09' E 017°49'  

Dump ship's entire track history